Time;durP1;ratioP1;P1;durP2;ratioP2;P2;SDS_P1;SDS_P2;PMS_P1;PMS_P2;Temp;Humidity;BMP_temperature;BMP_pressure;BME280_temperature;BME280_humidity;BME280_pressure;Samples;Min_cycle;Max_cycle;Signal;HPM_P1;HPM_P2
2022/07/02 00:01:37;;;;;;;8.45;3.40;;;;;;;;;;5105867;28;20036;-51
2022/07/02 00:04:04;;;;;;;9.80;2.60;;;;;;;;;;5105869;28;20038;-47
2022/07/02 00:06:30;;;;;;;8.52;3.55;;;;;;;;;;5104063;28;20044;-50
2022/07/02 00:08:56;;;;;;;14.07;4.53;;;;;;;;;;5104667;28;20613;-50
2022/07/02 00:11:21;;;;;;;7.15;2.80;;;;;;;;;;5103152;28;20524;-52
2022/07/02 00:13:48;;;;;;;6.57;2.95;;;;;;;;;;5103381;28;20051;-48
2022/07/02 00:16:14;;;;;;;7.38;3.20;;;;;;;;;;5104031;28;20074;-49
2022/07/02 00:18:39;;;;;;;7.47;2.65;;;;;;;;;;5100760;28;20086;-49
2022/07/02 00:21:04;;;;;;;3.88;2.08;;;;;;;;;;5095379;28;20135;-52
2022/07/02 00:23:30;;;;;;;9.52;2.40;;;;;;;;;;5101022;28;20142;-47
2022/07/02 00:26:02;;;;;;;3.47;2.28;;;;;;;;;;5103402;28;20043;-51
2022/07/02 00:28:28;;;;;;;4.22;2.72;;;;;;;;;;5101396;28;20797;-51
2022/07/02 00:30:54;;;;;;;20.38;3.05;;;;;;;;;;5085902;28;20131;-47
2022/07/02 00:33:20;;;;;;;7.97;2.50;;;;;;;;;;5100167;28;20154;-50
2022/07/02 00:35:46;;;;;;;10.85;2.70;;;;;;;;;;5104086;28;20097;-50
2022/07/02 00:38:11;;;;;;;3.80;2.45;;;;;;;;;;5102857;28;20052;-48
2022/07/02 00:40:37;;;;;;;6.82;2.22;;;;;;;;;;5101785;28;20035;-47
2022/07/02 00:43:02;;;;;;;5.10;1.95;;;;;;;;;;5100014;28;20495;-53
2022/07/02 00:45:28;;;;;;;5.28;2.38;;;;;;;;;;5104601;28;20044;-51
2022/07/02 00:47:54;;;;;;;5.25;2.30;;;;;;;;;;5104495;28;20564;-48
2022/07/02 00:50:20;;;;;;;3.63;2.70;;;;;;;;;;5104321;28;20047;-53
2022/07/02 00:52:45;;;;;;;10.77;2.85;;;;;;;;;;5106112;28;20097;-50
2022/07/02 00:55:12;;;;;;;8.85;2.53;;;;;;;;;;5105753;28;20050;-50
2022/07/02 00:57:37;;;;;;;4.10;2.83;;;;;;;;;;5105003;28;20131;-52
2022/07/02 01:00:03;;;;;;;5.93;2.75;;;;;;;;;;5104317;28;20127;-50
2022/07/02 01:02:29;;;;;;;5.10;1.92;;;;;;;;;;5103844;28;20032;-47
2022/07/02 01:04:55;;;;;;;3.25;2.40;;;;;;;;;;5104417;28;20044;-50
2022/07/02 01:07:20;;;;;;;9.45;2.90;;;;;;;;;;5104612;28;20228;-47
2022/07/02 01:12:32;;;;;;;3.45;2.75;;;;;;;;;;5108650;28;20046;-52
2022/07/02 01:14:57;;;;;;;6.70;2.53;;;;;;;;;;5106955;28;20750;-52
2022/07/02 01:17:23;;;;;;;2.80;2.17;;;;;;;;;;5108227;28;20126;-48
2022/07/02 01:19:48;;;;;;;11.88;2.45;;;;;;;;;;5108564;28;20047;-50
2022/07/02 01:22:14;;;;;;;6.72;3.30;;;;;;;;;;5107914;28;20453;-47
2022/07/02 01:24:39;;;;;;;5.78;2.28;;;;;;;;;;5108830;28;20122;-53
2022/07/02 01:27:05;;;;;;;15.40;3.72;;;;;;;;;;5108135;28;20031;-48
2022/07/02 01:29:30;;;;;;;6.95;2.40;;;;;;;;;;5108426;28;20517;-49
2022/07/02 01:31:56;;;;;;;7.60;3.58;;;;;;;;;;5104756;28;20043;-50
2022/07/02 01:34:21;;;;;;;17.08;3.90;;;;;;;;;;5103655;28;20047;-50
2022/07/02 01:36:47;;;;;;;4.43;2.40;;;;;;;;;;5098582;28;20106;-49
2022/07/02 01:39:13;;;;;;;6.80;3.22;;;;;;;;;;5103639;28;20040;-51
2022/07/02 01:41:41;;;;;;;9.98;3.60;;;;;;;;;;5107294;28;20114;-50
2022/07/02 01:44:07;;;;;;;4.90;3.20;;;;;;;;;;5107967;28;20171;-49
2022/07/02 01:46:32;;;;;;;7.65;3.70;;;;;;;;;;5104234;28;20111;-52
2022/07/02 01:48:58;;;;;;;3.58;1.95;;;;;;;;;;5106743;28;20048;-49
2022/07/02 01:51:23;;;;;;;9.73;3.20;;;;;;;;;;5105624;28;20047;-51
2022/07/02 01:53:48;;;;;;;2.92;2.10;;;;;;;;;;5108431;28;20070;-48
2022/07/02 01:56:14;;;;;;;4.13;2.22;;;;;;;;;;5109361;28;20052;-50
2022/07/02 01:58:39;;;;;;;7.20;2.53;;;;;;;;;;5107046;28;20447;-51
2022/07/02 02:01:04;;;;;;;10.40;3.30;;;;;;;;;;5100978;28;20528;-51
2022/07/02 02:03:30;;;;;;;9.65;3.55;;;;;;;;;;5106489;28;20048;-51
2022/07/02 02:05:55;;;;;;;5.30;2.67;;;;;;;;;;5107296;28;20035;-48
2022/07/02 02:08:20;;;;;;;4.50;2.38;;;;;;;;;;5105023;28;20055;-52
2022/07/02 02:10:45;;;;;;;6.38;1.92;;;;;;;;;;5105538;28;20043;-50
2022/07/02 02:13:11;;;;;;;3.05;2.13;;;;;;;;;;5106806;28;20485;-51
2022/07/02 02:15:36;;;;;;;4.28;2.80;;;;;;;;;;5102622;28;20495;-49
2022/07/02 02:18:01;;;;;;;7.75;2.70;;;;;;;;;;5107467;28;20134;-48
2022/07/02 02:20:27;;;;;;;8.18;3.28;;;;;;;;;;5104866;28;20104;-51
2022/07/02 02:22:52;;;;;;;6.30;2.33;;;;;;;;;;5099885;28;20143;-47
2022/07/02 02:25:17;;;;;;;5.93;2.13;;;;;;;;;;5107755;28;20042;-50
2022/07/02 02:27:43;;;;;;;2.88;2.20;;;;;;;;;;5108104;28;20094;-50
2022/07/02 02:30:08;;;;;;;2.53;1.73;;;;;;;;;;5105854;28;20592;-52
2022/07/02 02:32:36;;;;;;;5.10;2.63;;;;;;;;;;5103307;28;20069;-52
2022/07/02 02:35:02;;;;;;;3.58;2.25;;;;;;;;;;5104899;28;20529;-50
2022/07/02 02:37:27;;;;;;;6.65;3.22;;;;;;;;;;5107318;28;20031;-51
2022/07/02 02:39:52;;;;;;;3.97;2.28;;;;;;;;;;5106176;28;20097;-53
2022/07/02 02:42:18;;;;;;;5.80;1.95;;;;;;;;;;5106796;28;20063;-48
2022/07/02 02:44:43;;;;;;;7.57;2.83;;;;;;;;;;5106804;28;20035;-50
2022/07/02 02:47:09;;;;;;;4.95;1.95;;;;;;;;;;5106788;28;20044;-48
2022/07/02 02:49:34;;;;;;;7.05;2.38;;;;;;;;;;5106286;28;20467;-49
2022/07/02 02:51:59;;;;;;;6.10;2.72;;;;;;;;;;5107647;28;20042;-49
2022/07/02 02:54:24;;;;;;;5.55;2.33;;;;;;;;;;5108214;28;20127;-51
2022/07/02 02:56:50;;;;;;;3.33;1.88;;;;;;;;;;5102820;28;20055;-49
2022/07/02 02:59:15;;;;;;;5.68;2.70;;;;;;;;;;5106786;28;20126;-51
2022/07/02 03:01:40;;;;;;;7.93;2.85;;;;;;;;;;5104618;28;20063;-47
2022/07/02 03:04:06;;;;;;;6.10;2.45;;;;;;;;;;5106082;28;20449;-47
2022/07/02 03:06:31;;;;;;;3.40;2.22;;;;;;;;;;5107199;28;20798;-49
2022/07/02 03:08:56;;;;;;;5.38;2.38;;;;;;;;;;5107902;28;20518;-49
2022/07/02 03:11:22;;;;;;;4.65;2.55;;;;;;;;;;5102297;28;20052;-53
2022/07/02 03:13:47;;;;;;;4.35;2.60;;;;;;;;;;5106547;28;20499;-51
2022/07/02 03:16:12;;;;;;;6.07;3.05;;;;;;;;;;5106053;28;20043;-49
2022/07/02 03:18:37;;;;;;;12.38;5.15;;;;;;;;;;5105218;28;20161;-52
2022/07/02 03:21:03;;;;;;;7.63;2.95;;;;;;;;;;5106376;28;20081;-47
2022/07/02 03:23:28;;;;;;;11.73;5.43;;;;;;;;;;5105400;28;20044;-48
2022/07/02 03:25:54;;;;;;;7.78;3.92;;;;;;;;;;5103783;28;20047;-51
2022/07/02 03:28:19;;;;;;;13.23;10.77;;;;;;;;;;5100263;28;20047;-50
2022/07/02 03:30:44;;;;;;;12.35;3.65;;;;;;;;;;5106020;28;20075;-49
2022/07/02 03:33:10;;;;;;;8.50;3.85;;;;;;;;;;5106123;28;20406;-51
2022/07/02 03:35:35;;;;;;;4.88;2.47;;;;;;;;;;5106838;28;20043;-50
2022/07/02 03:38:01;;;;;;;8.73;3.35;;;;;;;;;;5104492;28;20055;-51
2022/07/02 03:40:27;;;;;;;6.38;3.88;;;;;;;;;;5099738;28;20114;-51
2022/07/02 03:42:52;;;;;;;3.75;2.60;;;;;;;;;;5107628;28;20545;-52
2022/07/02 03:45:18;;;;;;;6.47;3.35;;;;;;;;;;5088946;28;20043;-46
2022/07/02 03:47:43;;;;;;;3.35;2.00;;;;;;;;;;5103972;28;20047;-50
2022/07/02 03:50:09;;;;;;;4.97;3.28;;;;;;;;;;5101496;28;20051;-49
2022/07/02 03:52:36;;;;;;;5.97;2.65;;;;;;;;;;5104424;28;20055;-52
2022/07/02 03:55:02;;;;;;;5.55;2.78;;;;;;;;;;5102451;28;20043;-50
2022/07/02 03:57:27;;;;;;;5.25;3.22;;;;;;;;;;5105288;28;20131;-49
2022/07/02 03:59:52;;;;;;;4.05;3.53;;;;;;;;;;5106467;28;20061;-47
2022/07/02 04:02:18;;;;;;;3.30;2.22;;;;;;;;;;5105005;28;20116;-52
2022/07/02 04:04:43;;;;;;;4.93;2.53;;;;;;;;;;5105972;28;20160;-51
2022/07/02 04:07:08;;;;;;;10.38;3.05;;;;;;;;;;5105490;28;20467;-49
2022/07/02 04:09:34;;;;;;;5.97;2.90;;;;;;;;;;5105877;28;20126;-49
2022/07/02 04:11:59;;;;;;;7.40;2.70;;;;;;;;;;5104949;28;20035;-48
2022/07/02 04:14:24;;;;;;;13.35;2.95;;;;;;;;;;5102841;28;20039;-47
2022/07/02 04:16:50;;;;;;;5.40;2.95;;;;;;;;;;5098850;28;20047;-50
2022/07/02 04:19:15;;;;;;;9.07;2.33;;;;;;;;;;5099581;28;20051;-51
2022/07/02 04:21:41;;;;;;;4.40;2.60;;;;;;;;;;5105826;28;20506;-52
2022/07/02 04:24:06;;;;;;;6.47;1.95;;;;;;;;;;5106150;28;20403;-51
2022/07/02 04:26:31;;;;;;;9.13;2.70;;;;;;;;;;5102796;28;20461;-49
2022/07/02 04:28:57;;;;;;;6.32;2.45;;;;;;;;;;5105314;28;20050;-52
2022/07/02 04:31:22;;;;;;;8.23;3.22;;;;;;;;;;5104820;28;20070;-50
2022/07/02 04:33:47;;;;;;;3.60;2.33;;;;;;;;;;5104552;28;20078;-50
2022/07/02 04:36:12;;;;;;;5.40;2.55;;;;;;;;;;5105531;28;20047;-53
2022/07/02 04:38:38;;;;;;;7.82;2.92;;;;;;;;;;5104100;28;20040;-53
2022/07/02 04:41:03;;;;;;;6.15;3.67;;;;;;;;;;5106195;28;20420;-48
2022/07/02 04:43:28;;;;;;;4.63;3.53;;;;;;;;;;5104617;28;20488;-52
2022/07/02 04:45:54;;;;;;;8.95;2.58;;;;;;;;;;5106122;28;20044;-51
2022/07/02 04:48:19;;;;;;;13.73;3.50;;;;;;;;;;5110622;28;20047;-52
2022/07/02 04:50:44;;;;;;;5.72;2.97;;;;;;;;;;5110773;28;20063;-52
2022/07/02 04:53:10;;;;;;;15.23;4.10;;;;;;;;;;5110392;28;20430;-48
2022/07/02 04:55:35;;;;;;;9.75;4.32;;;;;;;;;;5108696;28;20054;-51
2022/07/02 04:58:00;;;;;;;11.07;2.60;;;;;;;;;;5109386;28;20059;-49
2022/07/02 05:00:26;;;;;;;3.95;2.00;;;;;;;;;;5112797;28;20672;-52
2022/07/02 05:02:51;;;;;;;6.18;2.88;;;;;;;;;;5109229;28;20028;-50
2022/07/02 05:05:16;;;;;;;2.97;2.17;;;;;;;;;;5108494;28;20046;-52
2022/07/02 05:07:41;;;;;;;17.17;3.63;;;;;;;;;;5109561;28;20063;-50
2022/07/02 05:10:07;;;;;;;9.30;3.88;;;;;;;;;;5112334;28;20087;-52
2022/07/02 05:12:32;;;;;;;10.93;3.05;;;;;;;;;;5112089;28;20040;-52
2022/07/02 05:14:57;;;;;;;6.97;2.83;;;;;;;;;;5112383;28;20536;-52
2022/07/02 05:17:23;;;;;;;18.05;3.55;;;;;;;;;;5091919;28;20103;-53
2022/07/02 05:19:48;;;;;;;7.60;2.88;;;;;;;;;;5111380;27;20609;-52
2022/07/02 05:22:13;;;;;;;3.95;2.20;;;;;;;;;;5110803;28;20043;-51
2022/07/02 05:24:39;;;;;;;2.55;1.90;;;;;;;;;;5112486;28;20141;-52
2022/07/02 05:27:04;;;;;;;6.63;2.67;;;;;;;;;;5112841;28;20577;-50
2022/07/02 05:29:30;;;;;;;8.10;3.45;;;;;;;;;;5110781;28;20495;-50
2022/07/02 05:31:55;;;;;;;6.07;2.90;;;;;;;;;;5107690;28;20051;-49
2022/07/02 05:34:20;;;;;;;2.35;1.83;;;;;;;;;;5109585;27;20148;-48
2022/07/02 05:36:47;;;;;;;8.20;2.97;;;;;;;;;;5111925;27;20078;-54
2022/07/02 05:39:12;;;;;;;7.75;3.03;;;;;;;;;;5108718;28;20542;-50
2022/07/02 05:41:38;;;;;;;11.70;3.47;;;;;;;;;;5108195;28;20131;-48
2022/07/02 05:44:04;;;;;;;6.55;3.63;;;;;;;;;;5108805;28;20070;-49
2022/07/02 05:46:29;;;;;;;3.33;2.60;;;;;;;;;;5108246;28;20039;-50
2022/07/02 05:48:54;;;;;;;11.43;2.70;;;;;;;;;;5109278;28;20179;-48
2022/07/02 05:51:19;;;;;;;5.05;2.28;;;;;;;;;;5109919;28;20070;-54
2022/07/02 05:53:45;;;;;;;6.53;2.10;;;;;;;;;;5107379;28;20159;-48
2022/07/02 05:56:10;;;;;;;4.30;3.03;;;;;;;;;;5108347;28;20075;-48
2022/07/02 05:58:35;;;;;;;7.57;3.88;;;;;;;;;;5106973;28;20043;-50
2022/07/02 06:01:01;;;;;;;13.75;3.92;;;;;;;;;;5105456;28;20105;-47
2022/07/02 06:03:26;;;;;;;9.23;4.30;;;;;;;;;;5107770;28;20032;-45
2022/07/02 06:08:37;;;;;;;5.35;3.42;;;;;;;;;;5107389;28;20054;-50
2022/07/02 06:11:03;;;;;;;8.88;4.70;;;;;;;;;;5103302;28;20120;-50
2022/07/02 06:13:28;;;;;;;10.63;4.85;;;;;;;;;;5099578;28;20075;-49
2022/07/02 06:15:53;;;;;;;14.80;4.03;;;;;;;;;;5107934;28;20063;-49
2022/07/02 06:18:18;;;;;;;6.15;3.13;;;;;;;;;;5103557;28;20361;-50
2022/07/02 06:20:44;;;;;;;3.92;2.88;;;;;;;;;;5107058;28;20712;-52
2022/07/02 06:23:09;;;;;;;4.57;3.10;;;;;;;;;;5106532;28;20047;-49
2022/07/02 06:25:34;;;;;;;7.15;2.65;;;;;;;;;;5107927;28;20113;-49
2022/07/02 06:28:00;;;;;;;5.50;3.00;;;;;;;;;;5108089;28;20055;-48
2022/07/02 06:30:25;;;;;;;3.50;3.15;;;;;;;;;;5107701;28;20148;-52
2022/07/02 06:32:50;;;;;;;9.80;3.25;;;;;;;;;;5104480;28;20047;-48
2022/07/02 06:35:16;;;;;;;8.13;2.33;;;;;;;;;;5100019;28;21400;-49
2022/07/02 06:37:41;;;;;;;4.85;3.72;;;;;;;;;;5099446;28;20046;-51
2022/07/02 06:40:07;;;;;;;3.13;2.05;;;;;;;;;;5108241;28;20036;-49
2022/07/02 06:42:32;;;;;;;5.82;3.75;;;;;;;;;;5103013;28;20045;-50
2022/07/02 06:44:58;;;;;;;6.63;3.38;;;;;;;;;;5104671;28;20040;-47
2022/07/02 06:47:24;;;;;;;11.75;3.53;;;;;;;;;;5106039;28;20043;-51
2022/07/02 06:49:50;;;;;;;4.90;2.63;;;;;;;;;;5106627;28;20121;-49
2022/07/02 06:52:16;;;;;;;3.15;2.38;;;;;;;;;;5107098;28;20118;-47
2022/07/02 06:54:42;;;;;;;5.32;2.92;;;;;;;;;;5103297;28;20064;-50
2022/07/02 06:57:07;;;;;;;2.65;1.85;;;;;;;;;;5105696;28;20082;-50
2022/07/02 06:59:33;;;;;;;9.35;2.78;;;;;;;;;;5100389;28;20044;-48
2022/07/02 07:01:58;;;;;;;5.40;1.90;;;;;;;;;;5107817;28;20134;-47
2022/07/02 07:04:24;;;;;;;8.32;3.13;;;;;;;;;;5107163;28;20035;-50
2022/07/02 07:06:54;;;;;;;15.98;3.30;;;;;;;;;;5103349;28;20096;-53
2022/07/02 07:09:20;;;;;;;8.63;2.35;;;;;;;;;;5104182;28;20163;-51
2022/07/02 07:11:45;;;;;;;4.60;1.73;;;;;;;;;;5105647;28;20051;-52
2022/07/02 07:14:10;;;;;;;3.28;1.90;;;;;;;;;;5104771;28;20082;-49
2022/07/02 07:16:36;;;;;;;5.95;2.60;;;;;;;;;;5104503;28;20201;-50
2022/07/02 07:19:04;;;;;;;3.05;2.03;;;;;;;;;;5104963;28;20086;-49
2022/07/02 07:21:30;;;;;;;3.83;2.90;;;;;;;;;;5105804;28;20070;-52
2022/07/02 07:23:55;;;;;;;1.83;1.48;;;;;;;;;;5104251;28;20040;-52
2022/07/02 07:26:21;;;;;;;2.85;2.28;;;;;;;;;;5102827;28;20085;-50
2022/07/02 07:28:46;;;;;;;6.38;2.53;;;;;;;;;;5107732;28;20110;-47
2022/07/02 07:31:13;;;;;;;4.28;2.78;;;;;;;;;;5105692;28;20063;-46
2022/07/02 07:33:39;;;;;;;5.65;2.67;;;;;;;;;;5104970;28;20039;-49
2022/07/02 07:36:04;;;;;;;15.23;3.70;;;;;;;;;;5104882;28;20043;-49
2022/07/02 07:38:29;;;;;;;8.07;2.42;;;;;;;;;;5099426;28;20514;-48
2022/07/02 07:40:55;;;;;;;4.22;2.47;;;;;;;;;;5100537;28;20055;-50
2022/07/02 07:43:20;;;;;;;12.32;2.13;;;;;;;;;;5102059;28;20056;-51
2022/07/02 07:45:46;;;;;;;7.82;2.38;;;;;;;;;;5105243;28;20035;-50
2022/07/02 07:48:12;;;;;;;7.00;2.30;;;;;;;;;;5096873;28;20043;-48
2022/07/02 07:50:37;;;;;;;3.05;2.15;;;;;;;;;;5101116;28;20047;-48
2022/07/02 07:53:03;;;;;;;2.13;1.77;;;;;;;;;;5104681;28;20434;-49
2022/07/02 07:55:28;;;;;;;5.78;2.92;;;;;;;;;;5099907;28;20202;-51
2022/07/02 07:57:53;;;;;;;3.90;1.80;;;;;;;;;;5104162;28;20134;-46
2022/07/02 08:00:19;;;;;;;4.18;2.28;;;;;;;;;;5102458;28;20143;-51
2022/07/02 08:02:44;;;;;;;4.20;3.58;;;;;;;;;;5103038;28;20040;-50
2022/07/02 08:05:09;;;;;;;3.80;2.50;;;;;;;;;;5103894;28;20093;-49
2022/07/02 08:07:36;;;;;;;3.00;1.60;;;;;;;;;;5105198;28;20130;-48
2022/07/02 08:10:01;;;;;;;19.58;2.00;;;;;;;;;;5102531;28;20043;-49
2022/07/02 08:12:27;;;;;;;6.13;2.60;;;;;;;;;;5100151;28;20047;-50
2022/07/02 08:14:52;;;;;;;5.78;3.25;;;;;;;;;;5102898;28;20506;-51
2022/07/02 08:17:17;;;;;;;5.20;2.78;;;;;;;;;;5086501;28;20423;-50
2022/07/02 08:19:43;;;;;;;2.75;1.95;;;;;;;;;;5105118;28;20399;-48
2022/07/02 08:22:08;;;;;;;14.23;3.38;;;;;;;;;;5104113;28;20040;-50
2022/07/02 08:24:34;;;;;;;6.57;2.58;;;;;;;;;;5103457;28;20040;-48
2022/07/02 08:26:59;;;;;;;9.13;2.80;;;;;;;;;;5100133;28;20044;-48
2022/07/02 08:29:24;;;;;;;12.60;2.08;;;;;;;;;;5103617;28;20046;-53
2022/07/02 08:31:50;;;;;;;3.35;2.33;;;;;;;;;;5087633;28;20425;-51
2022/07/02 08:34:15;;;;;;;3.85;2.20;;;;;;;;;;5103403;28;20495;-52
2022/07/02 08:36:41;;;;;;;3.72;2.38;;;;;;;;;;5104703;28;20139;-53
2022/07/02 08:39:06;;;;;;;10.27;3.17;;;;;;;;;;5105104;28;20048;-49
2022/07/02 08:41:31;;;;;;;3.55;2.03;;;;;;;;;;5104613;28;20040;-52
2022/07/02 08:43:59;;;;;;;8.57;2.45;;;;;;;;;;5105759;28;20028;-49
2022/07/02 08:46:25;;;;;;;5.47;2.67;;;;;;;;;;5103879;28;20181;-50
2022/07/02 08:48:51;;;;;;;7.18;3.88;;;;;;;;;;5102387;28;20525;-48
2022/07/02 08:51:19;;;;;;;8.20;3.78;;;;;;;;;;5103991;28;20648;-50
2022/07/02 08:53:45;;;;;;;6.65;2.65;;;;;;;;;;5105361;28;20097;-51
2022/07/02 08:56:13;;;;;;;8.60;2.60;;;;;;;;;;5104171;28;20055;-51
2022/07/02 08:58:38;;;;;;;4.72;2.80;;;;;;;;;;5105226;28;20051;-49
2022/07/02 09:01:05;;;;;;;2.47;1.55;;;;;;;;;;5095632;28;20035;-52
2022/07/02 09:03:32;;;;;;;3.13;1.73;;;;;;;;;;5102517;28;20046;-52
2022/07/02 09:05:57;;;;;;;3.80;1.95;;;;;;;;;;5103019;28;20085;-50
2022/07/02 09:08:23;;;;;;;2.63;1.67;;;;;;;;;;5104140;28;20051;-53
2022/07/02 09:10:50;;;;;;;5.70;2.05;;;;;;;;;;5105624;28;20054;-52
2022/07/02 09:13:16;;;;;;;3.38;1.88;;;;;;;;;;5104579;28;20043;-52
2022/07/02 09:15:41;;;;;;;4.68;1.77;;;;;;;;;;5105151;28;20066;-52
2022/07/02 09:18:07;;;;;;;21.85;1.73;;;;;;;;;;5104684;28;20043;-54
2022/07/02 09:20:32;;;;;;;3.65;2.42;;;;;;;;;;5104762;28;20039;-50
2022/07/02 09:22:57;;;;;;;3.50;1.40;;;;;;;;;;5104688;28;20448;-49
2022/07/02 09:25:29;;;;;;;2.83;1.30;;;;;;;;;;5102474;28;20080;-53
2022/07/02 09:27:59;;;;;;;1.20;0.80;;;;;;;;;;5095749;28;20048;-47
2022/07/02 09:30:24;;;;;;;1.20;0.85;;;;;;;;;;5095685;28;20457;-52
2022/07/02 09:32:49;;;;;;;11.13;1.15;;;;;;;;;;5103797;28;20036;-50
2022/07/02 09:35:24;;;;;;;1.90;1.05;;;;;;;;;;5105670;28;20079;-45
2022/07/02 09:37:50;;;;;;;2.25;1.70;;;;;;;;;;5104571;28;20124;-49
2022/07/02 09:40:16;;;;;;;2.85;1.75;;;;;;;;;;5105555;28;20174;-50
2022/07/02 09:42:44;;;;;;;5.03;2.08;;;;;;;;;;5106916;28;20135;-48
2022/07/02 09:45:10;;;;;;;4.78;0.88;;;;;;;;;;5108163;28;20032;-52
2022/07/02 09:47:36;;;;;;;3.38;1.23;;;;;;;;;;5107631;27;20604;-48
2022/07/02 09:50:03;;;;;;;3.92;2.17;;;;;;;;;;5107178;27;20662;-47
2022/07/02 09:52:29;;;;;;;2.15;0.85;;;;;;;;;;5102287;28;20044;-51
2022/07/02 09:54:54;;;;;;;2.83;1.25;;;;;;;;;;5098562;28;20090;-50
2022/07/02 09:57:19;;;;;;;3.15;1.33;;;;;;;;;;5104488;28;20499;-48
2022/07/02 09:59:45;;;;;;;24.92;2.03;;;;;;;;;;5108687;28;20117;-52
2022/07/02 10:02:21;;;;;;;4.75;1.42;;;;;;;;;;5108116;28;20049;-51
2022/07/02 10:04:49;;;;;;;3.63;1.85;;;;;;;;;;5104475;28;20076;-51
2022/07/02 10:07:14;;;;;;;3.53;1.23;;;;;;;;;;5103986;28;20047;-51
2022/07/02 10:09:41;;;;;;;3.53;1.00;;;;;;;;;;5102841;28;20380;-52
2022/07/02 10:12:07;;;;;;;0.93;0.70;;;;;;;;;;5107338;28;20383;-47
2022/07/02 10:14:34;;;;;;;1.63;1.23;;;;;;;;;;5107330;28;20061;-51
2022/07/02 10:17:01;;;;;;;0.85;0.65;;;;;;;;;;5106316;28;20070;-51
2022/07/02 10:19:26;;;;;;;1.23;0.77;;;;;;;;;;5107887;28;20039;-53
2022/07/02 10:21:52;;;;;;;4.13;1.55;;;;;;;;;;5097890;28;20097;-50
2022/07/02 10:24:17;;;;;;;4.00;1.98;;;;;;;;;;5108433;28;20335;-53
2022/07/02 10:26:42;;;;;;;3.03;1.45;;;;;;;;;;5107295;28;20050;-51
2022/07/02 10:29:08;;;;;;;1.27;0.88;;;;;;;;;;5105745;28;20126;-53
2022/07/02 10:31:38;;;;;;;2.40;1.30;;;;;;;;;;5126139;27;20096;-51
2022/07/02 10:34:13;;;;;;;1.67;0.90;;;;;;;;;;5128495;27;20051;-50
2022/07/02 10:36:38;;;;;;;1.50;1.23;;;;;;;;;;5127979;27;20051;-50
2022/07/02 10:39:05;;;;;;;2.38;1.23;;;;;;;;;;5126896;27;20094;-51
2022/07/02 10:41:31;;;;;;;1.05;0.73;;;;;;;;;;5124308;27;20551;-50
2022/07/02 10:43:57;;;;;;;1.02;0.80;;;;;;;;;;5125977;27;20126;-51
2022/07/02 10:46:24;;;;;;;0.40;0.40;;;;;;;;;;5123494;27;20043;-53
2022/07/02 10:48:51;;;;;;;3.15;1.40;;;;;;;;;;5126168;27;20549;-48
2022/07/02 10:51:17;;;;;;;3.67;1.05;;;;;;;;;;5127631;27;20126;-51
2022/07/02 10:53:47;;;;;;;2.15;1.48;;;;;;;;;;5127236;27;20074;-51
2022/07/02 10:56:12;;;;;;;5.93;1.13;;;;;;;;;;5127016;27;20059;-50
2022/07/02 10:58:37;;;;;;;1.00;0.90;;;;;;;;;;5126357;27;20043;-47
2022/07/02 11:01:12;;;;;;;0.88;0.73;;;;;;;;;;5126695;27;20042;-51
2022/07/02 11:03:38;;;;;;;4.32;1.67;;;;;;;;;;5127288;27;20071;-53
2022/07/02 11:06:05;;;;;;;3.72;0.80;;;;;;;;;;5125022;27;20115;-50
2022/07/02 11:08:33;;;;;;;4.63;2.00;;;;;;;;;;5126255;27;20502;-51
2022/07/02 11:10:58;;;;;;;1.73;1.33;;;;;;;;;;5126345;27;20598;-54
2022/07/02 11:13:31;;;;;;;1.88;1.15;;;;;;;;;;5127831;27;20079;-51
2022/07/02 11:15:57;;;;;;;1.50;0.68;;;;;;;;;;5126603;27;20047;-50
2022/07/02 11:18:22;;;;;;;1.95;1.23;;;;;;;;;;5124921;27;20050;-52
2022/07/02 11:20:47;;;;;;;0.75;0.60;;;;;;;;;;5125217;27;20049;-51
2022/07/02 11:23:13;;;;;;;2.45;1.33;;;;;;;;;;5125978;27;20085;-51
2022/07/02 11:25:39;;;;;;;2.47;1.50;;;;;;;;;;5123178;27;20039;-52
2022/07/02 11:28:04;;;;;;;1.73;1.17;;;;;;;;;;5126581;27;20138;-49
2022/07/02 11:30:31;;;;;;;3.60;1.67;;;;;;;;;;5106880;27;20035;-53
2022/07/02 11:32:56;;;;;;;4.47;1.15;;;;;;;;;;5106401;28;20044;-50
2022/07/02 11:35:22;;;;;;;1.40;1.25;;;;;;;;;;5103803;28;20411;-51
2022/07/02 11:37:47;;;;;;;3.30;1.50;;;;;;;;;;5103983;28;20059;-51
2022/07/02 11:40:22;;;;;;;3.17;1.52;;;;;;;;;;5125883;27;20391;-51
2022/07/02 11:42:48;;;;;;;2.25;1.73;;;;;;;;;;5124328;27;20043;-51
2022/07/02 11:45:13;;;;;;;3.40;1.55;;;;;;;;;;5120373;27;20096;-52
2022/07/02 11:47:45;;;;;;;2.03;1.42;;;;;;;;;;5103963;27;20053;-50
2022/07/02 11:50:10;;;;;;;1.42;1.30;;;;;;;;;;5105529;28;20078;-52
2022/07/02 11:52:36;;;;;;;3.25;1.55;;;;;;;;;;5107126;28;20043;-50
2022/07/02 11:55:02;;;;;;;1.65;1.05;;;;;;;;;;5102147;28;20430;-52
2022/07/02 11:57:34;;;;;;;2.83;1.40;;;;;;;;;;5100938;28;20073;-51
2022/07/02 11:59:59;;;;;;;2.55;1.38;;;;;;;;;;5098388;28;20038;-50
2022/07/02 12:02:24;;;;;;;1.05;0.52;;;;;;;;;;5106371;28;20047;-51
2022/07/02 12:04:50;;;;;;;3.38;1.65;;;;;;;;;;5104371;28;20032;-50
2022/07/02 12:07:15;;;;;;;2.53;1.48;;;;;;;;;;5087159;28;20053;-50
2022/07/02 12:09:40;;;;;;;5.03;1.13;;;;;;;;;;5106095;28;20039;-54
2022/07/02 12:12:06;;;;;;;3.17;1.95;;;;;;;;;;5107252;28;20043;-49
2022/07/02 12:14:31;;;;;;;1.77;1.17;;;;;;;;;;5104643;28;20059;-51
2022/07/02 12:16:59;;;;;;;1.60;0.70;;;;;;;;;;5104187;28;20158;-52
2022/07/02 12:19:28;;;;;;;1.83;1.13;;;;;;;;;;5105135;28;20122;-53
2022/07/02 12:21:53;;;;;;;2.83;0.77;;;;;;;;;;5103356;28;20142;-52
2022/07/02 12:24:19;;;;;;;1.48;0.80;;;;;;;;;;5104252;28;20043;-53
2022/07/02 12:26:45;;;;;;;1.00;0.60;;;;;;;;;;5102203;28;20405;-49
2022/07/02 12:32:02;;;;;;;5.38;1.40;;;;;;;;;;5105855;28;20097;-50
2022/07/02 12:34:35;;;;;;;1.85;1.35;;;;;;;;;;5098255;28;20058;-49
2022/07/02 12:37:00;;;;;;;1.38;1.00;;;;;;;;;;5105214;28;20043;-52
2022/07/02 12:39:46;;;;;;;3.15;2.13;;;;;;;;;;5105032;28;20047;-51
2022/07/02 12:42:15;;;;;;;3.85;1.42;;;;;;;;;;5104242;28;20078;-52
2022/07/02 12:44:51;;;;;;;4.00;1.70;;;;;;;;;;5103644;28;20039;-52
2022/07/02 12:47:23;;;;;;;3.88;1.65;;;;;;;;;;5101827;28;20131;-51
2022/07/02 12:49:53;;;;;;;3.03;1.50;;;;;;;;;;5101464;28;20077;-53
2022/07/02 12:52:18;;;;;;;11.98;1.27;;;;;;;;;;5099416;28;20044;-52
2022/07/02 12:54:43;;;;;;;6.10;2.63;;;;;;;;;;5105610;28;20112;-51
2022/07/02 12:57:13;;;;;;;5.60;2.35;;;;;;;;;;5103901;28;20043;-54
2022/07/02 12:59:38;;;;;;;1.85;1.10;;;;;;;;;;5103405;28;20105;-51
2022/07/02 13:02:04;;;;;;;1.17;0.80;;;;;;;;;;5104525;28;20048;-52
2022/07/02 13:04:29;;;;;;;0.93;0.60;;;;;;;;;;5103026;28;20147;-54
2022/07/02 13:06:54;;;;;;;2.90;0.93;;;;;;;;;;5105573;28;20048;-52
2022/07/02 13:09:21;;;;;;;4.88;0.88;;;;;;;;;;5108896;28;20190;-51
2022/07/02 13:11:46;;;;;;;3.30;1.70;;;;;;;;;;5109917;28;20040;-51
2022/07/02 13:14:12;;;;;;;1.70;0.93;;;;;;;;;;5109506;28;20418;-50
2022/07/02 13:16:37;;;;;;;1.27;0.68;;;;;;;;;;5108138;28;20274;-48
2022/07/02 13:19:02;;;;;;;2.10;1.00;;;;;;;;;;5108471;28;20058;-50
2022/07/02 13:21:28;;;;;;;0.90;0.65;;;;;;;;;;5106104;28;20057;-54
2022/07/02 13:23:53;;;;;;;1.25;0.90;;;;;;;;;;5107085;28;20046;-52
2022/07/02 13:26:18;;;;;;;2.63;1.20;;;;;;;;;;5104336;28;20046;-53
2022/07/02 13:28:44;;;;;;;0.80;0.60;;;;;;;;;;5106242;28;20104;-54
2022/07/02 13:31:09;;;;;;;8.45;1.52;;;;;;;;;;5110328;28;20336;-53
2022/07/02 13:33:34;;;;;;;3.20;1.30;;;;;;;;;;5107816;28;20475;-52
2022/07/02 13:35:59;;;;;;;1.05;0.50;;;;;;;;;;5108255;28;20071;-53
2022/07/02 13:38:25;;;;;;;2.28;1.73;;;;;;;;;;5104358;28;20035;-53
2022/07/02 13:40:50;;;;;;;1.10;0.70;;;;;;;;;;5105380;28;20543;-54
2022/07/02 13:43:15;;;;;;;1.88;0.85;;;;;;;;;;5105409;28;20120;-60
2022/07/02 13:45:41;;;;;;;2.08;0.55;;;;;;;;;;5107912;28;20526;-51
2022/07/02 13:48:06;;;;;;;7.43;1.27;;;;;;;;;;5105971;28;20080;-52
2022/07/02 13:50:31;;;;;;;3.30;0.60;;;;;;;;;;5103581;28;20119;-53
2022/07/02 13:52:57;;;;;;;6.82;2.10;;;;;;;;;;5107768;28;20176;-49
2022/07/02 13:55:22;;;;;;;4.32;1.30;;;;;;;;;;5101243;28;20047;-52
2022/07/02 13:57:47;;;;;;;1.10;0.70;;;;;;;;;;5106291;28;20063;-48
2022/07/02 14:00:13;;;;;;;2.10;1.00;;;;;;;;;;5102656;28;20047;-49
2022/07/02 14:02:38;;;;;;;3.97;1.35;;;;;;;;;;5104279;28;20507;-51
2022/07/02 14:05:04;;;;;;;0.90;0.77;;;;;;;;;;5104969;28;20051;-50
2022/07/02 14:07:29;;;;;;;1.45;0.95;;;;;;;;;;5102483;28;20130;-52
2022/07/02 14:09:54;;;;;;;1.20;0.77;;;;;;;;;;5107247;28;20032;-52
2022/07/02 14:12:20;;;;;;;1.42;1.00;;;;;;;;;;5098783;28;20097;-50
2022/07/02 14:14:45;;;;;;;2.42;0.98;;;;;;;;;;5105062;28;20502;-51
2022/07/02 14:17:11;;;;;;;0.75;0.60;;;;;;;;;;5102779;28;20040;-52
2022/07/02 14:19:36;;;;;;;2.55;2.03;;;;;;;;;;5106372;28;20120;-50
2022/07/02 14:22:02;;;;;;;2.47;1.20;;;;;;;;;;5105278;28;20070;-46
2022/07/02 14:24:27;;;;;;;1.15;0.90;;;;;;;;;;5105792;28;20031;-50
2022/07/02 14:26:52;;;;;;;2.05;1.38;;;;;;;;;;5104240;28;20043;-49
2022/07/02 14:29:18;;;;;;;2.45;1.38;;;;;;;;;;5104956;28;20479;-51
2022/07/02 14:31:46;;;;;;;1.50;0.93;;;;;;;;;;5103911;28;20051;-54
2022/07/02 14:34:11;;;;;;;2.70;1.67;;;;;;;;;;5105922;28;20525;-51
2022/07/02 14:36:37;;;;;;;1.50;0.70;;;;;;;;;;5104618;28;20031;-48
2022/07/02 14:39:03;;;;;;;2.42;1.02;;;;;;;;;;5105096;28;20556;-51
2022/07/02 14:41:31;;;;;;;0.95;0.65;;;;;;;;;;5105370;28;20055;-52